Time;durP1;ratioP1;P1;durP2;ratioP2;P2;SDS_P1;SDS_P2;PMS_P1;PMS_P2;Temp;Humidity;BMP_temperature;BMP_pressure;BME280_temperature;BME280_humidity;BME280_pressure;Samples;Min_cycle;Max_cycle;Signal;HPM_P1;HPM_P2
2021/04/30 00:02:09;;;;;;;10.90;1.60;;;;;;;24.32;26.14;100977.75;5033305;28;20061;-66
2021/04/30 00:04:37;;;;;;;8.50;1.30;;;;;;;24.31;26.12;100987.66;5032931;28;20057;-67
2021/04/30 00:07:04;;;;;;;11.48;1.88;;;;;;;24.34;25.87;100983.97;5033573;28;20146;-67
2021/04/30 00:09:32;;;;;;;6.95;1.10;;;;;;;24.42;25.35;100984.53;5033140;28;20061;-66
2021/04/30 00:12:00;;;;;;;6.70;1.58;;;;;;;24.50;25.32;100977.03;5032466;28;20120;-66
2021/04/30 00:14:27;;;;;;;4.10;1.52;;;;;;;24.51;25.23;100974.28;5033521;28;20084;-67
2021/04/30 00:16:54;;;;;;;5.47;1.40;;;;;;;24.52;25.21;100970.66;5032961;28;20064;-66
2021/04/30 00:19:22;;;;;;;5.18;1.35;;;;;;;24.55;25.23;100984.03;5032236;28;20045;-67
2021/04/30 00:21:50;;;;;;;3.85;1.00;;;;;;;24.56;25.06;100966.00;5031468;28;20065;-66
2021/04/30 00:24:17;;;;;;;5.85;1.15;;;;;;;24.57;25.15;100976.75;5032524;28;20044;-67
2021/04/30 00:26:45;;;;;;;9.93;2.20;;;;;;;24.58;25.01;100970.41;5033724;28;20076;-67
2021/04/30 00:29:13;;;;;;;7.43;1.30;;;;;;;24.58;25.00;100983.91;5033068;28;20045;-66
2021/04/30 00:31:42;;;;;;;5.53;1.15;;;;;;;24.55;24.96;100978.63;5031417;28;20402;-66
2021/04/30 00:34:09;;;;;;;7.15;1.48;;;;;;;24.56;24.99;100977.69;5033031;28;20053;-66
2021/04/30 00:36:36;;;;;;;6.90;1.63;;;;;;;24.62;24.70;100965.75;5032240;28;20060;-67
2021/04/30 00:39:05;;;;;;;8.20;1.33;;;;;;;24.68;24.37;100970.06;5031813;28;20041;-67
2021/04/30 00:41:34;;;;;;;7.75;1.48;;;;;;;24.76;24.38;100968.81;5031569;28;20033;-67
2021/04/30 00:44:04;;;;;;;6.32;1.73;;;;;;;24.94;23.82;100973.50;5032508;28;20045;-67
2021/04/30 00:46:33;;;;;;;8.13;1.38;;;;;;;25.01;23.98;100974.13;5032247;28;20038;-66
2021/04/30 00:49:00;;;;;;;8.00;1.90;;;;;;;25.03;24.01;100977.66;5031336;28;20042;-67
2021/04/30 00:51:29;;;;;;;8.32;1.58;;;;;;;25.04;23.90;100981.25;5031988;28;20069;-67
2021/04/30 00:53:56;;;;;;;12.18;2.00;;;;;;;25.12;23.63;100969.19;5031637;28;20039;-67
2021/04/30 00:56:23;;;;;;;7.93;1.23;;;;;;;25.19;23.52;100986.91;5031928;28;20112;-67
2021/04/30 00:58:51;;;;;;;6.88;1.48;;;;;;;25.18;23.68;100974.34;5032684;28;20065;-67
2021/04/30 01:01:18;;;;;;;6.32;1.50;;;;;;;25.22;23.71;100978.66;5031652;28;20034;-67
2021/04/30 01:03:47;;;;;;;6.60;1.10;;;;;;;25.23;23.82;100980.44;5032839;28;20041;-67
2021/04/30 01:06:15;;;;;;;8.13;2.25;;;;;;;25.22;23.73;100962.44;5032040;28;20065;-67
2021/04/30 01:08:42;;;;;;;5.75;1.73;;;;;;;25.24;23.89;100979.50;5031820;28;20125;-66
2021/04/30 01:11:09;;;;;;;8.05;2.17;;;;;;;25.24;23.76;100987.59;5031876;28;20052;-67
2021/04/30 01:13:37;;;;;;;12.02;2.00;;;;;;;25.19;23.92;100988.72;5031132;28;20077;-67
2021/04/30 01:16:04;;;;;;;6.57;1.50;;;;;;;25.22;23.39;100978.66;5031811;28;20061;-67
2021/04/30 01:18:40;;;;;;;7.25;2.15;;;;;;;25.30;23.38;100960.31;5031632;28;20038;-67
2021/04/30 01:21:09;;;;;;;4.90;1.48;;;;;;;25.34;22.97;100958.34;5031253;28;20076;-67
2021/04/30 01:23:46;;;;;;;6.63;1.38;;;;;;;25.37;23.20;100969.03;5031730;28;20139;-67
2021/04/30 01:26:13;;;;;;;5.00;1.48;;;;;;;25.27;23.33;100982.03;5031990;28;20481;-67
2021/04/30 01:28:41;;;;;;;4.20;1.27;;;;;;;25.21;23.24;100973.31;5031446;28;20051;-67
2021/04/30 01:31:08;;;;;;;6.93;2.08;;;;;;;25.21;23.05;100960.69;5031746;28;20477;-67
2021/04/30 01:33:35;;;;;;;8.57;2.03;;;;;;;25.27;22.94;100955.00;5031479;28;20523;-67
2021/04/30 01:36:04;;;;;;;9.90;1.42;;;;;;;25.42;22.30;100945.38;5031176;28;20381;-67
2021/04/30 01:38:31;;;;;;;9.73;1.75;;;;;;;25.55;21.92;100968.25;5031645;28;20069;-67
2021/04/30 01:41:00;;;;;;;2.97;1.17;;;;;;;25.68;21.78;100960.50;5031181;28;20527;-67
2021/04/30 01:43:27;;;;;;;5.47;1.05;;;;;;;25.73;21.78;100974.75;5030873;28;20042;-67
2021/04/30 01:45:58;;;;;;;7.32;1.65;;;;;;;25.71;21.58;100954.97;5031368;28;20053;-67
2021/04/30 01:48:27;;;;;;;3.88;1.23;;;;;;;25.82;21.56;100963.50;5031369;28;20367;-67
2021/04/30 01:50:55;;;;;;;3.60;1.15;;;;;;;25.90;21.31;100968.56;5030858;28;20029;-67
2021/04/30 01:53:24;;;;;;;6.82;1.45;;;;;;;25.92;21.29;100962.16;5030865;28;20042;-68
2021/04/30 01:55:52;;;;;;;9.85;1.55;;;;;;;25.92;21.36;100975.69;5031028;28;20251;-68
2021/04/30 01:58:23;;;;;;;5.63;1.40;;;;;;;25.93;21.15;100961.19;5031229;28;20046;-67
2021/04/30 02:00:51;;;;;;;7.47;1.20;;;;;;;25.93;21.32;100958.47;5030663;28;20087;-67
2021/04/30 02:03:19;;;;;;;5.00;1.25;;;;;;;25.93;21.13;100957.63;5030740;28;20060;-67
2021/04/30 02:05:47;;;;;;;4.75;1.60;;;;;;;26.03;20.88;100964.38;5031658;28;20125;-71
2021/04/30 02:08:15;;;;;;;9.73;1.73;;;;;;;26.12;20.98;100958.56;5031661;28;20103;-67
2021/04/30 02:10:44;;;;;;;8.80;2.38;;;;;;;26.22;20.58;100961.69;5030577;28;20061;-67
2021/04/30 02:13:12;;;;;;;5.03;1.27;;;;;;;26.24;20.75;100976.06;5030709;28;20482;-67
2021/04/30 02:15:42;;;;;;;7.53;1.55;;;;;;;26.25;20.79;100978.75;5030565;28;20046;-67
2021/04/30 02:18:09;;;;;;;7.80;2.03;;;;;;;26.34;20.45;100955.75;5030518;28;20041;-67
2021/04/30 02:20:36;;;;;;;3.90;1.33;;;;;;;26.40;20.15;100966.28;5031128;28;20044;-67
2021/04/30 02:23:05;;;;;;;6.82;1.67;;;;;;;26.45;20.18;100962.41;5029207;28;20033;-67
2021/04/30 02:25:32;;;;;;;5.57;1.65;;;;;;;26.49;19.83;100961.34;5028852;28;20045;-67
2021/04/30 02:28:01;;;;;;;6.43;1.27;;;;;;;26.53;19.65;100897.94;5030408;28;20033;-67
2021/04/30 02:30:30;;;;;;;8.82;1.45;;;;;;;26.58;19.16;100951.91;5029217;28;20069;-67
2021/04/30 02:32:58;;;;;;;9.77;1.85;;;;;;;26.63;18.69;100976.06;5030177;28;20042;-67
2021/04/30 02:35:29;;;;;;;7.82;1.38;;;;;;;26.64;19.00;100977.81;5030933;28;20045;-67
2021/04/30 02:37:56;;;;;;;6.43;1.52;;;;;;;26.65;18.36;100966.88;5030639;28;20065;-67
2021/04/30 02:40:26;;;;;;;5.57;1.40;;;;;;;26.78;18.05;100973.47;5030493;28;20048;-67
2021/04/30 02:42:54;;;;;;;11.65;2.00;;;;;;;26.75;17.79;100987.19;5029553;28;20091;-67
2021/04/30 02:45:21;;;;;;;6.38;1.13;;;;;;;26.74;17.49;100982.72;5029283;28;20037;-67
2021/04/30 02:47:50;;;;;;;4.40;1.20;;;;;;;26.74;16.93;100982.72;5030628;28;20041;-67
2021/04/30 02:50:20;;;;;;;6.57;1.00;;;;;;;26.78;17.02;100968.06;5030740;28;20121;-68
2021/04/30 02:52:47;;;;;;;4.90;1.20;;;;;;;26.84;16.60;100981.34;5028924;28;20065;-70
2021/04/30 02:55:16;;;;;;;8.27;1.88;;;;;;;26.86;15.95;100978.53;5030797;28;20038;-67
2021/04/30 02:57:44;;;;;;;5.07;1.38;;;;;;;26.84;16.23;100991.31;5030880;28;20087;-67
2021/04/30 03:00:13;;;;;;;5.30;1.35;;;;;;;26.86;15.92;100973.13;5030373;28;20038;-67
2021/04/30 03:02:40;;;;;;;5.43;1.30;;;;;;;26.88;15.77;100990.19;5032379;28;20045;-67
2021/04/30 03:05:09;;;;;;;5.15;1.33;;;;;;;26.87;15.96;100993.84;5033961;28;20122;-67
2021/04/30 03:07:38;;;;;;;4.22;1.02;;;;;;;26.84;15.86;100986.75;5034464;28;20121;-67
2021/04/30 03:10:07;;;;;;;4.70;0.98;;;;;;;26.80;16.23;100979.72;5033879;28;20053;-67
2021/04/30 03:12:34;;;;;;;5.70;1.15;;;;;;;26.77;16.17;100971.75;5034545;28;20053;-67
2021/04/30 03:15:01;;;;;;;5.88;1.10;;;;;;;26.72;15.80;100975.59;5033241;28;20041;-67
2021/04/30 03:17:29;;;;;;;4.43;0.80;;;;;;;26.71;16.13;100980.19;5034296;28;20039;-67
2021/04/30 03:19:57;;;;;;;4.22;0.93;;;;;;;26.69;16.16;100986.59;5033272;28;20544;-67
2021/04/30 03:22:24;;;;;;;6.22;1.35;;;;;;;26.57;16.47;100991.66;5033580;28;20109;-67
2021/04/30 03:24:53;;;;;;;2.47;0.98;;;;;;;26.54;16.76;100990.91;5034074;28;20041;-67
2021/04/30 03:27:20;;;;;;;2.88;0.63;;;;;;;26.50;16.84;101005.56;5033787;28;20080;-67
2021/04/30 03:29:47;;;;;;;4.55;0.85;;;;;;;26.52;16.64;101009.94;5034423;28;20107;-66
2021/04/30 03:32:14;;;;;;;4.72;0.88;;;;;;;26.55;16.60;101017.94;5034631;28;20049;-67
2021/04/30 03:34:41;;;;;;;6.03;1.00;;;;;;;26.52;16.43;101009.03;5033704;28;20128;-67
2021/04/30 03:37:08;;;;;;;7.05;1.17;;;;;;;26.50;16.41;101027.22;5033837;28;20061;-67
2021/04/30 03:39:35;;;;;;;4.65;0.82;;;;;;;26.51;16.55;101028.97;5033793;28;20037;-67
2021/04/30 03:42:04;;;;;;;4.93;1.10;;;;;;;26.51;16.69;101028.97;5033661;28;20131;-67
2021/04/30 03:44:31;;;;;;;3.88;1.10;;;;;;;26.50;16.36;101033.53;5033735;28;20705;-67
2021/04/30 03:46:58;;;;;;;6.78;1.13;;;;;;;26.49;16.69;101041.72;5033904;28;20045;-67
2021/04/30 03:49:26;;;;;;;2.33;0.70;;;;;;;26.47;16.79;101047.19;5032896;28;20120;-67
2021/04/30 03:51:53;;;;;;;2.58;0.90;;;;;;;26.52;16.52;101049.69;5032933;28;20519;-67
2021/04/30 03:54:20;;;;;;;5.20;0.73;;;;;;;26.54;16.60;101050.50;5032915;28;20048;-67
2021/04/30 03:56:47;;;;;;;8.23;1.27;;;;;;;26.57;16.83;101062.09;5032534;28;20129;-69
2021/04/30 03:59:15;;;;;;;4.18;0.90;;;;;;;26.64;17.20;101068.09;5033851;28;20041;-67
2021/04/30 04:01:42;;;;;;;3.85;1.00;;;;;;;26.69;17.14;101068.75;5029062;28;20124;-67
2021/04/30 04:04:09;;;;;;;3.55;0.82;;;;;;;26.76;16.96;101075.66;5033102;28;20042;-67
2021/04/30 04:06:37;;;;;;;7.30;1.50;;;;;;;26.89;17.10;101076.00;5031957;28;20053;-66
2021/04/30 04:09:04;;;;;;;4.43;1.00;;;;;;;26.98;16.96;101079.13;5032587;28;20068;-67
2021/04/30 04:11:32;;;;;;;4.18;1.00;;;;;;;27.13;16.79;101082.06;5032429;28;20048;-67
2021/04/30 04:13:59;;;;;;;3.30;0.82;;;;;;;27.29;16.39;101081.28;5032158;28;20042;-66
2021/04/30 04:16:29;;;;;;;8.27;1.73;;;;;;;27.50;15.80;101082.06;5032238;28;20512;-67
2021/04/30 04:18:56;;;;;;;6.93;0.90;;;;;;;27.71;15.88;101086.44;5032211;28;20136;-67
2021/04/30 04:21:24;;;;;;;3.33;0.93;;;;;;;27.86;16.01;101090.22;5030369;28;20060;-67
2021/04/30 04:23:51;;;;;;;5.25;1.27;;;;;;;28.02;16.18;101087.59;5031835;28;20065;-67
2021/04/30 04:26:18;;;;;;;5.65;1.10;;;;;;;28.21;16.00;101082.13;5032816;28;20487;-67
2021/04/30 04:28:47;;;;;;;8.98;1.00;;;;;;;28.38;15.83;101092.97;5033099;28;20459;-67
2021/04/30 04:31:14;;;;;;;9.20;1.63;;;;;;;28.48;16.12;101092.41;5032296;28;20124;-67
2021/04/30 04:33:42;;;;;;;5.18;1.65;;;;;;;28.51;15.75;101096.78;5032536;28;20037;-67
2021/04/30 04:36:09;;;;;;;6.70;1.45;;;;;;;28.42;15.81;101098.16;5033135;28;20119;-66
2021/04/30 04:38:37;;;;;;;7.32;1.83;;;;;;;28.30;16.18;101106.94;5032224;28;20068;-66
2021/04/30 04:41:04;;;;;;;3.35;1.45;;;;;;;28.21;16.67;101101.13;5032896;28;20112;-66
2021/04/30 04:43:31;;;;;;;5.93;1.75;;;;;;;28.23;16.33;101110.06;5030992;28;20045;-66
2021/04/30 04:45:58;;;;;;;4.57;1.50;;;;;;;28.23;16.32;101099.19;5031926;28;20115;-66
2021/04/30 04:48:25;;;;;;;7.13;2.00;;;;;;;28.22;16.48;101105.59;5032643;28;20124;-67
2021/04/30 04:50:54;;;;;;;5.28;1.60;;;;;;;28.17;16.37;101108.53;5031423;28;20044;-66
2021/04/30 04:53:22;;;;;;;7.97;1.73;;;;;;;28.35;16.13;101114.88;5031899;28;20057;-66
2021/04/30 04:55:49;;;;;;;6.57;2.20;;;;;;;28.43;16.32;101120.75;5032487;28;20128;-66
2021/04/30 04:58:16;;;;;;;5.88;2.10;;;;;;;28.39;16.35;101130.91;5030995;28;20493;-67
2021/04/30 05:00:43;;;;;;;9.40;2.53;;;;;;;28.56;16.24;101121.88;5032468;28;20124;-66
2021/04/30 05:03:10;;;;;;;8.63;1.88;;;;;;;28.76;15.82;101143.44;5032634;28;20124;-66
2021/04/30 05:05:38;;;;;;;7.15;1.58;;;;;;;29.05;15.73;101139.16;5031302;28;20232;-66
2021/04/30 05:08:06;;;;;;;4.53;1.15;;;;;;;29.28;15.77;101141.47;5031509;28;20064;-66
2021/04/30 05:10:34;;;;;;;2.60;1.15;;;;;;;29.28;16.21;101140.59;5030194;28;20053;-66
2021/04/30 05:13:01;;;;;;;5.68;1.42;;;;;;;29.49;16.13;101147.56;5031416;28;20057;-66
2021/04/30 05:15:30;;;;;;;10.13;1.63;;;;;;;29.73;16.19;101158.03;5032091;28;20116;-67
2021/04/30 05:17:57;;;;;;;5.03;1.27;;;;;;;29.87;16.14;101150.81;5030930;28;20056;-67
2021/04/30 05:20:24;;;;;;;7.65;1.58;;;;;;;29.97;16.36;101159.34;5031388;28;20081;-67
2021/04/30 05:22:52;;;;;;;7.68;1.52;;;;;;;30.03;16.41;101164.44;5031272;28;20091;-67
2021/04/30 05:25:20;;;;;;;4.30;1.20;;;;;;;29.88;16.69;101168.91;5030764;28;20045;-67
2021/04/30 05:27:47;;;;;;;4.85;1.30;;;;;;;30.09;16.17;101173.13;5024666;28;20042;-67
2021/04/30 05:30:16;;;;;;;6.70;1.45;;;;;;;30.43;15.88;101182.03;5027853;28;20458;-67
2021/04/30 05:32:44;;;;;;;5.53;1.20;;;;;;;30.81;16.09;101188.75;5030322;28;20037;-67
2021/04/30 05:35:13;;;;;;;4.28;1.08;;;;;;;31.19;16.31;101202.75;5031017;28;20075;-66
2021/04/30 05:37:41;;;;;;;5.90;0.88;;;;;;;31.42;15.91;101211.34;5031229;28;20053;-66
2021/04/30 05:40:09;;;;;;;7.60;0.98;;;;;;;31.55;15.99;101212.31;5031294;28;20128;-66
2021/04/30 05:42:37;;;;;;;3.10;0.80;;;;;;;31.67;15.36;101215.16;5031040;28;20041;-66
2021/04/30 05:45:06;;;;;;;5.88;0.95;;;;;;;31.82;15.09;101224.22;5030663;28;20504;-66
2021/04/30 05:47:33;;;;;;;4.85;0.90;;;;;;;31.91;14.93;101223.56;5030860;28;20033;-67
2021/04/30 05:50:00;;;;;;;4.20;1.20;;;;;;;32.07;14.64;101226.19;5030778;28;20117;-67
2021/04/30 05:52:30;;;;;;;20.90;10.30;;;;;;;32.27;14.67;101233.06;5030853;28;20528;-66
2021/04/30 05:54:57;;;;;;;42.97;26.33;;;;;;;32.41;14.48;101231.16;5026823;28;20037;-67
2021/04/30 05:57:24;;;;;;;5.45;1.63;;;;;;;32.58;14.83;101230.00;5030272;28;20045;-67
2021/04/30 05:59:53;;;;;;;9.02;3.63;;;;;;;32.70;14.38;101226.44;5031017;28;20489;-67
2021/04/30 06:02:22;;;;;;;4.80;1.10;;;;;;;32.81;14.26;101225.72;5029857;28;20061;-68
2021/04/30 06:04:49;;;;;;;17.15;8.15;;;;;;;32.97;14.04;101217.28;5027761;28;20052;-67
2021/04/30 06:07:16;;;;;;;5.50;1.30;;;;;;;33.06;14.32;101212.06;5031609;28;20045;-67
2021/04/30 06:09:43;;;;;;;5.47;1.02;;;;;;;33.29;14.15;101213.16;5030863;28;20128;-67
2021/04/30 06:12:11;;;;;;;3.92;0.90;;;;;;;33.43;13.69;101207.56;5030814;28;20076;-66
2021/04/30 06:14:38;;;;;;;5.13;1.10;;;;;;;33.55;13.72;101217.63;5029768;28;20129;-66
2021/04/30 06:17:08;;;;;;;11.20;1.40;;;;;;;33.74;13.79;101202.63;5030139;28;20057;-66
2021/04/30 06:19:35;;;;;;;6.95;1.63;;;;;;;33.85;13.47;101206.31;5030635;28;20049;-67
2021/04/30 06:22:02;;;;;;;5.40;1.08;;;;;;;33.90;13.03;101204.09;5030435;28;20037;-66
2021/04/30 06:24:29;;;;;;;5.07;1.20;;;;;;;33.85;12.75;101206.31;5029405;28;20053;-67
2021/04/30 06:26:56;;;;;;;16.38;6.35;;;;;;;34.01;13.20;101220.59;5029229;28;20120;-67
2021/04/30 06:29:26;;;;;;;4.10;1.15;;;;;;;34.10;13.26;101219.03;5028625;28;20390;-67
2021/04/30 06:31:53;;;;;;;3.85;0.95;;;;;;;34.28;13.47;101225.88;5027368;28;20053;-67
2021/04/30 06:34:21;;;;;;;5.40;1.20;;;;;;;34.26;13.06;101227.00;5029046;28;20084;-67
2021/04/30 06:36:50;;;;;;;6.18;1.40;;;;;;;34.31;12.99;101231.16;5034570;28;20485;-68
2021/04/30 06:39:17;;;;;;;4.03;1.20;;;;;;;34.32;12.68;101235.66;5033171;28;20049;-66
2021/04/30 06:41:44;;;;;;;9.02;2.22;;;;;;;34.30;12.68;101242.22;5032130;28;20120;-66
2021/04/30 06:44:12;;;;;;;2.42;1.30;;;;;;;34.21;12.66;101238.31;5032883;28;20045;-66
2021/04/30 06:46:39;;;;;;;5.32;1.67;;;;;;;34.20;12.33;101243.91;5033784;28;20545;-66
2021/04/30 06:49:06;;;;;;;12.15;5.18;;;;;;;34.21;12.63;101245.63;5034667;28;20396;-66
2021/04/30 06:51:35;;;;;;;8.82;2.63;;;;;;;34.17;12.48;101236.78;5032693;28;20127;-67
2021/04/30 06:54:02;;;;;;;9.40;4.53;;;;;;;34.09;12.12;101235.59;5034667;28;20037;-66
2021/04/30 06:56:31;;;;;;;5.78;0.93;;;;;;;34.10;12.37;101248.31;5032400;28;20053;-66
2021/04/30 06:59:00;;;;;;;4.90;1.25;;;;;;;34.13;12.44;101248.97;5033048;28;20104;-66
2021/04/30 07:01:28;;;;;;;4.05;1.45;;;;;;;34.20;12.58;101247.50;5033635;28;20184;-66
2021/04/30 07:03:55;;;;;;;3.67;1.00;;;;;;;34.33;12.40;101245.59;5030311;28;20040;-67
2021/04/30 07:06:22;;;;;;;9.57;1.45;;;;;;;34.34;12.26;101251.97;5034373;28;20048;-67
2021/04/30 07:08:53;;;;;;;4.60;1.23;;;;;;;34.46;12.25;101248.31;5029795;28;20030;-66
2021/04/30 07:11:22;;;;;;;7.53;2.33;;;;;;;34.60;12.53;101247.22;5028469;28;20040;-67
2021/04/30 07:13:50;;;;;;;5.55;1.98;;;;;;;34.68;12.40;101253.00;5028681;28;20037;-67
2021/04/30 07:16:21;;;;;;;6.30;1.63;;;;;;;34.75;12.32;101246.06;5033538;28;20041;-65
2021/04/30 07:18:50;;;;;;;5.55;1.15;;;;;;;34.80;11.76;101238.34;5031753;28;20065;-66
2021/04/30 07:21:18;;;;;;;5.57;1.55;;;;;;;34.91;11.68;101240.25;5032798;28;20512;-66
2021/04/30 07:23:45;;;;;;;5.45;2.35;;;;;;;35.04;11.59;101241.03;5034276;28;20061;-67
2021/04/30 07:26:14;;;;;;;2.78;1.10;;;;;;;35.27;11.42;101247.47;5032699;28;20128;-67
2021/04/30 07:28:41;;;;;;;12.50;1.40;;;;;;;35.39;11.37;101258.34;5031025;28;20056;-67
2021/04/30 07:31:08;;;;;;;5.28;1.48;;;;;;;35.47;11.42;101261.34;5033455;28;20762;-66
2021/04/30 07:33:36;;;;;;;5.43;1.25;;;;;;;35.61;11.22;101262.97;5032572;28;20037;-66
2021/04/30 07:36:04;;;;;;;5.85;1.60;;;;;;;35.63;11.28;101263.75;5032059;28;20052;-67
2021/04/30 07:38:32;;;;;;;8.23;1.80;;;;;;;35.72;11.13;101275.88;5033681;28;20132;-67
2021/04/30 07:40:59;;;;;;;6.10;1.80;;;;;;;35.52;14.92;101288.44;5032496;28;20033;-67
2021/04/30 07:43:27;;;;;;;6.72;1.92;;;;;;;34.86;17.74;101281.78;5030588;28;20041;-67
2021/04/30 07:45:54;;;;;;;9.77;1.95;;;;;;;34.55;18.65;101286.00;5033016;28;20068;-67
2021/04/30 07:48:24;;;;;;;5.30;1.48;;;;;;;33.76;20.13;101296.50;5029276;28;20205;-67
2021/04/30 07:50:51;;;;;;;10.07;2.08;;;;;;;33.47;20.48;101295.88;5031808;28;20494;-67
2021/04/30 07:53:18;;;;;;;5.93;1.95;;;;;;;33.28;20.97;101295.44;5032370;28;20069;-67
2021/04/30 07:55:45;;;;;;;9.23;2.50;;;;;;;33.31;21.39;101307.03;5032001;28;20049;-66
2021/04/30 07:58:12;;;;;;;7.38;1.58;;;;;;;33.52;21.64;101294.53;5030842;28;20037;-67
2021/04/30 08:00:42;;;;;;;5.50;1.60;;;;;;;33.65;21.38;101297.28;5030851;28;20049;-67
2021/04/30 08:03:09;;;;;;;9.27;1.83;;;;;;;33.59;21.59;101305.94;5029745;28;20503;-66
2021/04/30 08:05:36;;;;;;;6.18;2.50;;;;;;;33.40;22.65;101303.66;5015916;28;20037;-66
2021/04/30 08:08:04;;;;;;;5.80;2.05;;;;;;;33.17;23.27;101310.69;5029672;28;20057;-67
2021/04/30 08:10:32;;;;;;;8.15;1.40;;;;;;;33.01;23.80;101312.78;5030685;28;20119;-67
2021/04/30 08:12:59;;;;;;;7.95;1.40;;;;;;;32.60;24.62;101322.88;5032382;28;20065;-67
2021/04/30 08:15:26;;;;;;;8.27;2.90;;;;;;;32.35;24.91;101316.34;5033107;28;20440;-67
2021/04/30 08:17:55;;;;;;;31.92;15.25;;;;;;;32.86;24.20;101307.47;5031531;28;20065;-68
2021/04/30 08:20:22;;;;;;;10.68;2.38;;;;;;;33.26;22.64;101306.47;5033174;28;20037;-67
2021/04/30 08:22:49;;;;;;;10.20;3.00;;;;;;;33.16;22.35;101314.41;5031950;28;20128;-67
2021/04/30 08:25:16;;;;;;;7.07;2.80;;;;;;;32.67;22.69;101311.47;5031508;28;20069;-67
2021/04/30 08:27:43;;;;;;;15.60;6.55;;;;;;;32.73;23.00;101311.03;5031851;28;20061;-67
2021/04/30 08:30:12;;;;;;;14.95;5.75;;;;;;;32.78;22.87;101306.13;5032369;28;20374;-67
2021/04/30 08:32:40;;;;;;;12.70;4.53;;;;;;;32.61;22.76;101314.59;5031752;28;20137;-67
2021/04/30 08:35:09;;;;;;;9.82;3.13;;;;;;;32.99;22.21;101320.19;5030334;28;20045;-67
2021/04/30 08:37:37;;;;;;;7.47;2.80;;;;;;;33.09;21.27;101315.81;5032496;28;20044;-68
2021/04/30 08:40:05;;;;;;;11.48;3.15;;;;;;;33.26;20.98;101319.28;5032548;28;20050;-67
2021/04/30 08:43:00;;;;;;;7.75;1.70;;;;;;;33.78;20.59;101321.94;5097281;27;21043;-65
2021/04/30 08:45:28;;;;;;;7.90;1.90;;;;;;;33.71;21.07;101323.38;5093859;28;20047;-66
2021/04/30 08:47:56;;;;;;;6.93;2.50;;;;;;;34.15;21.50;101326.47;5107214;28;20588;-66
2021/04/30 08:50:23;;;;;;;6.82;1.98;;;;;;;34.33;21.84;101311.41;5106913;28;20063;-66
2021/04/30 08:52:50;;;;;;;6.07;1.88;;;;;;;34.04;21.72;101320.03;5108663;28;20083;-67
2021/04/30 08:55:18;;;;;;;5.57;1.48;;;;;;;33.84;21.08;101321.50;5107571;28;20047;-66
2021/04/30 08:57:52;;;;;;;7.22;2.05;;;;;;;34.08;21.21;101321.56;5105361;28;20040;-66
2021/04/30 09:00:24;;;;;;;6.45;1.85;;;;;;;34.44;21.32;101321.59;5123775;28;20063;-67
2021/04/30 09:02:52;;;;;;;11.32;2.63;;;;;;;34.50;21.09;101323.88;5127688;28;20039;-66
2021/04/30 09:05:25;;;;;;;9.35;1.65;;;;;;;34.67;20.18;101320.72;5131250;27;20034;-66
2021/04/30 09:07:55;;;;;;;10.15;2.13;;;;;;;34.93;19.85;101321.47;5135435;27;20069;-67
2021/04/30 09:10:22;;;;;;;10.88;1.45;;;;;;;35.23;19.70;101320.13;5126692;27;20032;-65
2021/04/30 09:13:07;;;;;;;7.22;1.85;;;;;;;35.49;19.57;101319.81;5128434;28;20119;-67
2021/04/30 09:15:36;;;;;;;8.27;1.92;;;;;;;35.28;19.43;101310.53;5127744;27;20032;-65
2021/04/30 09:18:21;;;;;;;4.70;1.55;;;;;;;35.07;19.34;101306.69;5128204;28;20043;-65
2021/04/30 09:20:49;;;;;;;6.63;1.85;;;;;;;35.13;19.43;101306.19;5121057;27;20039;-65
2021/04/30 09:23:33;;;;;;;5.53;1.40;;;;;;;35.60;19.30;101307.06;5110708;28;20046;-66
2021/04/30 09:26:01;;;;;;;5.57;1.50;;;;;;;35.81;19.17;101303.50;5127263;28;20081;-66
2021/04/30 09:28:28;;;;;;;5.72;1.63;;;;;;;35.72;18.97;101300.59;5124698;27;20474;-66
2021/04/30 09:30:56;;;;;;;4.78;1.98;;;;;;;35.65;19.22;101294.69;5127703;27;20039;-66
2021/04/30 09:33:25;;;;;;;8.20;1.50;;;;;;;35.64;19.35;101290.22;5126892;28;20070;-66
2021/04/30 09:35:54;;;;;;;3.38;1.10;;;;;;;35.76;19.59;101294.75;5126412;27;20047;-66
2021/04/30 09:38:24;;;;;;;7.05;1.92;;;;;;;35.90;19.76;101282.63;5127710;28;20039;-67
2021/04/30 09:40:53;;;;;;;6.75;1.92;;;;;;;35.87;19.71;101281.00;5110331;28;20142;-67
2021/04/30 09:43:21;;;;;;;10.70;2.25;;;;;;;35.70;19.90;101284.25;5126052;28;20031;-67
2021/04/30 09:45:48;;;;;;;10.07;2.15;;;;;;;35.72;20.20;101275.88;5125853;28;20048;-66
2021/04/30 09:48:17;;;;;;;9.35;2.50;;;;;;;35.52;20.12;101277.44;5122158;28;20390;-66
2021/04/30 09:50:46;;;;;;;10.27;2.63;;;;;;;35.39;20.38;101271.19;5123324;28;20122;-66
2021/04/30 09:53:17;;;;;;;7.75;2.28;;;;;;;35.17;20.03;101275.66;5101026;28;20039;-66
2021/04/30 09:55:46;;;;;;;7.93;2.42;;;;;;;34.87;20.31;101275.28;5113518;28;20080;-67
2021/04/30 09:58:16;;;;;;;7.85;2.55;;;;;;;34.66;20.40;101280.53;5104124;28;20384;-67
2021/04/30 10:00:43;;;;;;;6.13;2.35;;;;;;;34.56;20.55;101278.63;5106372;27;20447;-66
2021/04/30 10:03:15;;;;;;;12.32;3.83;;;;;;;34.64;20.82;101288.03;5109915;28;20054;-67
2021/04/30 10:06:17;;;;;;;8.30;2.47;;;;;;;34.69;21.04;101288.56;5109279;28;20043;-67
2021/04/30 10:09:03;;;;;;;9.30;2.95;;;;;;;34.77;21.42;101288.88;5109225;28;20092;-67
2021/04/30 10:11:31;;;;;;;9.55;2.08;;;;;;;34.47;21.75;101285.69;5109490;28;20064;-67
2021/04/30 10:14:00;;;;;;;10.20;3.08;;;;;;;34.28;21.83;101282.59;5112242;28;20064;-67
2021/04/30 10:16:27;;;;;;;8.93;2.92;;;;;;;34.16;22.08;101278.00;5112882;28;20056;-67
2021/04/30 10:18:54;;;;;;;7.93;3.22;;;;;;;34.14;22.03;101282.72;5113359;28;20039;-67
2021/04/30 10:21:25;;;;;;;7.55;3.25;;;;;;;33.99;22.44;101282.91;5112436;28;20111;-67
2021/04/30 10:23:53;;;;;;;8.02;3.00;;;;;;;34.10;22.21;101273.84;5114083;28;20130;-67
2021/04/30 10:26:21;;;;;;;10.65;2.80;;;;;;;33.98;22.10;101272.91;5112796;28;20037;-69
2021/04/30 10:28:52;;;;;;;6.38;2.33;;;;;;;33.78;21.99;101275.38;5112702;28;20065;-66
2021/04/30 10:31:28;;;;;;;9.65;2.65;;;;;;;33.85;22.06;101276.69;5113234;28;20115;-67
2021/04/30 10:34:00;;;;;;;10.90;2.63;;;;;;;33.61;22.34;101279.28;5109912;28;20499;-67
2021/04/30 10:36:33;;;;;;;8.52;2.17;;;;;;;33.53;21.89;101284.47;5113276;28;20471;-66
2021/04/30 10:39:02;;;;;;;14.18;6.82;;;;;;;33.58;22.21;101285.88;5112646;28;20403;-66
2021/04/30 10:41:30;;;;;;;15.63;8.05;;;;;;;33.61;21.91;101284.75;5112022;28;20043;-66
2021/04/30 10:44:21;;;;;;;8.13;2.05;;;;;;;33.43;22.18;101286.09;5111242;28;20507;-67
2021/04/30 10:46:50;;;;;;;7.88;1.88;;;;;;;33.41;22.09;101272.50;5109090;28;20047;-67
2021/04/30 10:49:20;;;;;;;11.43;2.22;;;;;;;33.23;21.67;101287.53;5112676;28;20043;-66
2021/04/30 10:52:19;;;;;;;6.85;2.50;;;;;;;33.08;21.14;101300.38;5113496;28;20059;-66
2021/04/30 10:55:00;;;;;;;6.95;2.00;;;;;;;32.86;21.50;101304.72;5032735;28;20612;-66
2021/04/30 10:57:27;;;;;;;10.13;2.70;;;;;;;32.88;21.46;101303.66;5096024;28;20087;-66
2021/04/30 10:59:54;;;;;;;10.25;3.17;;;;;;;33.02;21.21;101308.13;5110090;28;20045;-66
2021/04/30 11:02:27;;;;;;;8.85;2.10;;;;;;;33.03;21.37;101315.38;5109820;28;20050;-66
2021/04/30 11:05:12;;;;;;;9.13;2.22;;;;;;;33.00;21.33;101310.13;5095849;28;20096;-67
2021/04/30 11:07:43;;;;;;;8.85;1.83;;;;;;;33.02;21.54;101309.03;5108962;28;20050;-65
2021/04/30 11:10:39;;;;;;;10.05;2.15;;;;;;;32.91;21.45;101310.75;5108821;28;20058;-66
2021/04/30 11:13:15;;;;;;;10.10;1.95;;;;;;;33.03;21.37;101301.69;5109176;28;20047;-66
2021/04/30 11:15:59;;;;;;;6.43;1.98;;;;;;;33.26;20.76;101301.00;5105007;28;20043;-66
2021/04/30 11:18:30;;;;;;;7.05;1.80;;;;;;;33.65;20.93;101296.41;5101855;28;20067;-67
2021/04/30 11:21:06;;;;;;;8.27;1.92;;;;;;;34.07;20.42;101301.47;5110554;28;20500;-67
2021/04/30 11:23:42;;;;;;;10.25;2.28;;;;;;;34.03;20.29;101289.00;5112387;28;20116;-66
2021/04/30 11:26:14;;;;;;;8.00;2.00;;;;;;;34.30;19.82;101284.25;5111051;28;20031;-66
2021/04/30 11:29:11;;;;;;;9.23;2.03;;;;;;;34.61;19.35;101274.53;5109277;28;20119;-66
2021/04/30 11:31:40;;;;;;;7.03;1.85;;;;;;;34.73;19.66;101280.97;5109614;28;20032;-66
2021/04/30 11:34:31;;;;;;;6.78;2.17;;;;;;;34.76;19.09;101270.66;5107496;28;20115;-67